createdAt,value
2022-10-04T00:03:44.011Z,7.80
2022-10-04T00:09:09.612Z,9.30
2022-10-04T00:14:35.808Z,7.60
2022-10-04T00:19:50.265Z,8.60
2022-10-04T00:25:10.065Z,9.80
2022-10-04T00:30:19.745Z,9.20
2022-10-04T00:35:27.468Z,10.00
2022-10-04T00:40:34.131Z,9.30
2022-10-04T00:45:47.553Z,6.90
2022-10-04T00:51:04.156Z,6.60
2022-10-04T00:56:11.287Z,5.60
2022-10-04T01:01:13.131Z,5.30
2022-10-04T01:06:15.904Z,6.50
2022-10-04T01:11:41.518Z,7.00
2022-10-04T01:16:43.585Z,7.50
2022-10-04T01:21:47.251Z,7.70
2022-10-04T01:26:49.978Z,7.30
2022-10-04T01:32:00.626Z,8.20
2022-10-04T01:37:02.537Z,7.90
2022-10-04T01:42:14.480Z,8.30
2022-10-04T01:47:27.016Z,7.20
2022-10-04T01:52:49.018Z,6.80
2022-10-04T01:57:58.340Z,5.90
2022-10-04T02:03:34.615Z,7.30
2022-10-04T02:08:41.388Z,6.70
2022-10-04T02:13:45.799Z,7.90
2022-10-04T02:18:49.841Z,7.80
2022-10-04T02:23:53.289Z,6.30
2022-10-04T02:28:55.280Z,8.40
2022-10-04T02:34:00.135Z,7.40
2022-10-04T02:39:04.769Z,7.50
2022-10-04T02:44:42.219Z,5.40
2022-10-04T02:49:52.759Z,5.60
2022-10-04T02:55:10.708Z,6.70
2022-10-04T03:00:13.210Z,5.30
2022-10-04T03:05:15.453Z,5.10
2022-10-04T03:10:17.410Z,5.90
2022-10-04T03:15:20.596Z,5.70
2022-10-04T03:20:22.759Z,6.40
2022-10-04T03:25:30.326Z,5.00
2022-10-04T03:35:40.576Z,5.20
2022-10-04T03:40:51.555Z,6.50
2022-10-04T03:45:55.463Z,6.10
2022-10-04T03:50:58.777Z,5.60
2022-10-04T03:56:04.501Z,5.20
2022-10-04T04:01:25.897Z,5.70
2022-10-04T04:06:40.447Z,6.70
2022-10-04T04:11:44.418Z,4.80
2022-10-04T04:16:47.077Z,6.20
2022-10-04T04:21:50.175Z,4.50
2022-10-04T04:26:58.216Z,5.70
2022-10-04T04:32:16.806Z,5.60
2022-10-04T04:37:20.626Z,5.20
2022-10-04T04:42:31.867Z,6.90
2022-10-04T04:47:44.234Z,5.40
2022-10-04T04:52:55.698Z,5.80
2022-10-04T04:57:59.637Z,6.40
2022-10-04T05:03:25.542Z,6.40
2022-10-04T05:08:36.009Z,7.20
2022-10-04T05:14:09.103Z,6.60
2022-10-04T05:19:31.197Z,4.60
2022-10-04T05:24:40.905Z,5.60
2022-10-04T05:30:00.869Z,4.80
2022-10-04T05:35:02.825Z,5.10
2022-10-04T05:40:20.846Z,5.90
2022-10-04T05:50:42.219Z,5.60
2022-10-04T05:56:19.834Z,5.60
2022-10-04T06:01:34.356Z,6.10
2022-10-04T06:07:03.026Z,5.80
2022-10-04T06:12:20.224Z,6.60
2022-10-04T06:18:04.419Z,5.20
2022-10-04T06:23:21.452Z,4.90
2022-10-04T06:28:42.987Z,5.70
2022-10-04T06:33:45.090Z,5.60
2022-10-04T06:39:04.447Z,4.40
2022-10-04T06:44:09.342Z,4.50
2022-10-04T06:49:39.095Z,6.00
2022-10-04T06:55:25.571Z,4.20
2022-10-04T07:00:31.083Z,5.70
2022-10-04T07:05:42.565Z,4.60
2022-10-04T07:10:53.313Z,4.10
2022-10-04T07:16:36.202Z,4.70
2022-10-04T07:22:05.760Z,3.00
2022-10-04T07:27:13.459Z,3.70
2022-10-04T07:32:24.727Z,4.10
2022-10-04T07:37:31.060Z,4.00
2022-10-04T07:42:45.093Z,3.70
2022-10-04T07:47:47.180Z,2.90
2022-10-04T07:53:05.907Z,2.90
2022-10-04T07:58:23.301Z,3.70
2022-10-04T08:03:39.397Z,3.10
2022-10-04T08:09:10.045Z,3.20
2022-10-04T08:14:33.795Z,3.10
2022-10-04T08:20:16.060Z,3.70
2022-10-04T08:25:33.431Z,3.50
2022-10-04T08:30:55.661Z,3.20
2022-10-04T08:36:12.135Z,2.90
2022-10-04T08:41:51.651Z,3.00
2022-10-04T08:47:21.847Z,2.80
2022-10-04T08:52:46.022Z,3.00
2022-10-04T08:58:05.390Z,2.90
2022-10-04T09:03:31.586Z,2.70
2022-10-04T09:08:56.659Z,3.30
2022-10-04T09:14:12.847Z,2.70
2022-10-04T09:19:40.633Z,3.30
2022-10-04T09:24:51.506Z,2.60
2022-10-04T09:30:19.763Z,2.80
2022-10-04T09:35:46.482Z,2.30
2022-10-04T09:41:03.858Z,3.20
2022-10-04T09:46:15.892Z,3.50
2022-10-04T09:51:45.348Z,2.40
2022-10-04T09:57:15.842Z,2.80
2022-10-04T10:02:44.814Z,1.70
2022-10-04T10:08:02.363Z,2.50
2022-10-04T10:19:07.267Z,2.70
2022-10-04T10:24:46.847Z,2.50
2022-10-04T10:29:59.423Z,2.20
2022-10-04T10:35:24.378Z,2.50
2022-10-04T10:40:41.019Z,2.40
2022-10-04T10:46:01.373Z,1.90
2022-10-04T10:51:23.434Z,3.10
2022-10-04T10:56:52.674Z,3.00
2022-10-04T11:01:57.979Z,3.00
2022-10-04T11:07:37.266Z,2.30
2022-10-04T11:12:41.956Z,2.30
2022-10-04T11:18:04.467Z,1.90
2022-10-04T11:23:46.001Z,2.50
2022-10-04T11:29:20.537Z,3.10
2022-10-04T11:34:38.223Z,3.10
2022-10-04T11:40:18.067Z,2.00
2022-10-04T11:45:33.378Z,2.40
2022-10-04T11:51:09.148Z,2.60
2022-10-04T11:56:29.864Z,2.20
2022-10-04T12:02:07.183Z,2.30
2022-10-04T12:07:42.096Z,1.70
2022-10-04T12:12:47.370Z,2.20
2022-10-04T12:18:07.675Z,2.90
2022-10-04T12:23:35.093Z,1.90
2022-10-04T12:29:25.826Z,2.00
2022-10-04T12:34:40.819Z,2.50
2022-10-04T12:40:10.341Z,2.20
2022-10-04T12:45:34.775Z,2.60
2022-10-04T12:51:04.727Z,2.20
2022-10-04T12:56:28.497Z,2.50
2022-10-04T13:01:55.448Z,2.10
2022-10-04T13:07:09.227Z,1.80
2022-10-04T13:12:24.548Z,1.90
2022-10-04T13:17:55.935Z,2.30
2022-10-04T13:23:02.208Z,2.30
2022-10-04T13:28:07.103Z,1.80
2022-10-04T13:33:36.176Z,1.60
2022-10-04T13:39:10.218Z,2.50
2022-10-04T13:44:26.457Z,1.60
2022-10-04T13:49:55.418Z,2.20
2022-10-04T13:55:45.030Z,2.10
2022-10-04T14:01:33.975Z,1.90
2022-10-04T14:07:15.585Z,1.90
2022-10-04T14:13:03.363Z,2.10
2022-10-04T14:18:47.441Z,2.30
2022-10-04T14:24:02.900Z,2.60
2022-10-04T14:29:30.557Z,2.50
2022-10-04T14:34:57.137Z,2.60
2022-10-04T14:40:11.064Z,3.00
2022-10-04T14:45:25.156Z,3.40
2022-10-04T14:50:44.339Z,3.30
2022-10-04T14:56:04.536Z,3.00
2022-10-04T15:01:27.108Z,4.10
2022-10-04T15:07:02.005Z,4.40
2022-10-04T15:12:40.773Z,3.20
2022-10-04T15:17:53.285Z,3.00
2022-10-04T15:23:16.050Z,3.70
2022-10-04T15:28:30.646Z,3.50
2022-10-04T15:33:39.827Z,3.70
2022-10-04T15:39:01.915Z,4.00
2022-10-04T15:44:14.741Z,4.10
2022-10-04T15:49:38.786Z,4.00
2022-10-04T15:55:06.392Z,3.60
2022-10-04T16:00:15.584Z,5.00
2022-10-04T16:05:44.556Z,3.70
2022-10-04T16:11:03.371Z,4.00
2022-10-04T16:16:17.759Z,7.90
2022-10-04T16:21:31.742Z,5.10
2022-10-04T16:26:34.024Z,7.30
2022-10-04T16:31:47.949Z,17.80
2022-10-04T16:37:24.228Z,31.40
2022-10-04T16:42:40.342Z,45.40
2022-10-04T16:47:48.201Z,46.20
2022-10-04T16:52:58.406Z,48.80
2022-10-04T16:58:28.550Z,34.40
2022-10-04T17:03:36.606Z,25.90
2022-10-04T17:09:00.507Z,30.50
2022-10-04T17:14:22.004Z,28.90
2022-10-04T17:19:51.702Z,29.60
2022-10-04T17:25:19.272Z,25.20
2022-10-04T17:30:27.437Z,22.50
2022-10-04T17:36:03.753Z,41.80
2022-10-04T17:41:14.416Z,64.70
2022-10-04T17:46:53.092Z,40.10
2022-10-04T17:52:15.726Z,40.60
2022-10-04T17:57:41.522Z,57.40
2022-10-04T18:03:04.057Z,49.60
2022-10-04T18:08:29.027Z,47.10
2022-10-04T18:13:39.615Z,40.70
2022-10-04T18:18:43.541Z,58.10
2022-10-04T18:24:01.379Z,109.90
2022-10-04T18:34:28.000Z,76.40
2022-10-04T18:39:43.981Z,66.80
2022-10-04T18:45:00.464Z,51.90
2022-10-04T18:50:29.370Z,39.00
2022-10-04T18:55:52.943Z,41.60
2022-10-04T19:01:26.825Z,36.10
2022-10-04T19:06:36.657Z,38.80
2022-10-04T19:12:11.434Z,40.30
2022-10-04T19:17:37.275Z,46.00
2022-10-04T19:22:51.528Z,44.50
2022-10-04T19:28:13.646Z,46.10
2022-10-04T19:33:30.216Z,46.90
2022-10-04T19:38:41.355Z,42.70
2022-10-04T19:43:58.972Z,42.70
2022-10-04T19:49:02.315Z,55.60
2022-10-04T19:54:19.231Z,51.60
2022-10-04T19:59:35.947Z,45.30
2022-10-04T20:04:38.639Z,48.00
2022-10-04T20:09:48.050Z,52.20
2022-10-04T20:14:49.997Z,56.20
2022-10-04T20:19:51.830Z,53.10
2022-10-04T20:24:54.061Z,54.20
2022-10-04T20:30:04.137Z,51.60
2022-10-04T20:35:11.377Z,49.10
2022-10-04T20:40:22.043Z,47.50
2022-10-04T20:45:25.806Z,65.60
2022-10-04T20:50:46.431Z,58.30
2022-10-04T20:55:53.844Z,61.00
2022-10-04T21:00:59.581Z,58.40
2022-10-04T21:06:15.798Z,59.90
2022-10-04T21:11:21.395Z,55.30
2022-10-04T21:16:57.467Z,55.60
2022-10-04T21:27:09.075Z,60.50
2022-10-04T21:32:10.835Z,53.00
2022-10-04T21:37:12.733Z,55.80
2022-10-04T21:42:14.737Z,51.30
2022-10-04T21:47:16.713Z,53.30
2022-10-04T21:52:18.937Z,48.40
2022-10-04T21:57:22.202Z,49.80
2022-10-04T22:02:24.102Z,49.00
2022-10-04T22:07:26.143Z,50.00
2022-10-04T22:12:30.111Z,54.30
2022-10-04T22:17:31.995Z,55.20
2022-10-04T22:22:37.566Z,53.70
2022-10-04T22:32:46.431Z,46.60
2022-10-04T22:37:49.339Z,48.20
2022-10-04T22:42:54.245Z,46.10
2022-10-04T22:47:59.460Z,48.70
2022-10-04T22:53:22.252Z,47.20
2022-10-04T22:58:24.449Z,48.80
2022-10-04T23:03:31.962Z,50.30
2022-10-04T23:08:57.517Z,49.10
2022-10-04T23:14:05.879Z,49.30
2022-10-04T23:19:18.966Z,47.40
2022-10-04T23:24:23.094Z,44.50
2022-10-04T23:29:33.583Z,42.60
2022-10-04T23:34:37.980Z,46.20
2022-10-04T23:39:40.406Z,46.30
2022-10-04T23:44:42.580Z,38.20
2022-10-04T23:49:50.042Z,35.90
2022-10-04T23:54:54.429Z,38.50
2022-10-04T23:59:59.526Z,36.80
